createdAt,value
2023-01-02T00:06:29.719Z,100.00
2023-01-02T00:14:04.101Z,100.00
2023-01-02T00:21:39.347Z,100.00
2023-01-02T00:29:13.173Z,100.00
2023-01-02T00:36:48.469Z,100.00
2023-01-02T00:44:22.429Z,100.00
2023-01-02T00:51:57.915Z,100.00
2023-01-02T00:59:31.846Z,100.00
2023-01-02T01:07:07.105Z,100.00
2023-01-02T01:14:41.154Z,100.00
2023-01-02T01:22:16.455Z,100.00
2023-01-02T01:29:50.420Z,100.00
2023-01-02T01:37:25.699Z,100.00
2023-01-02T01:44:59.732Z,100.00
2023-01-02T01:52:40.233Z,100.00
2023-01-02T02:00:14.987Z,100.00
2023-01-02T02:07:59.009Z,100.00
2023-01-02T02:15:46.160Z,100.00
2023-01-02T02:23:46.465Z,100.00
2023-01-02T02:31:30.139Z,100.00
2023-01-02T02:39:11.970Z,100.00
2023-01-02T02:46:54.732Z,100.00
2023-01-02T02:54:36.445Z,99.65
2023-01-02T03:02:16.454Z,96.09
2023-01-02T03:10:01.885Z,95.05
2023-01-02T03:17:46.184Z,95.86
2023-01-02T03:25:22.273Z,95.51
2023-01-02T03:33:01.242Z,93.07
2023-01-02T03:40:40.857Z,93.38
2023-01-02T03:48:25.622Z,94.45
2023-01-02T03:56:12.300Z,91.83
2023-01-02T04:03:53.631Z,91.02
2023-01-02T04:11:30.228Z,90.89
2023-01-02T04:19:12.222Z,90.61
2023-01-02T04:26:50.013Z,90.48
2023-01-02T04:34:29.219Z,91.04
2023-01-02T04:42:03.399Z,91.02
2023-01-02T04:49:38.714Z,89.61
2023-01-02T04:57:12.462Z,89.41
2023-01-02T05:04:47.733Z,88.37
2023-01-02T05:12:21.562Z,88.16
2023-01-02T05:19:57.370Z,87.49
2023-01-02T05:27:31.471Z,87.35
2023-01-02T05:35:07.584Z,86.77
2023-01-02T05:42:41.461Z,85.52
2023-01-02T05:50:16.975Z,85.61
2023-01-02T05:57:55.180Z,85.66
2023-01-02T06:05:30.451Z,83.68
2023-01-02T06:13:04.494Z,83.60
2023-01-02T06:20:40.906Z,83.39
2023-01-02T06:28:14.822Z,83.22
2023-01-02T06:35:57.617Z,83.22
2023-01-02T06:43:32.484Z,82.10
2023-01-02T06:51:09.087Z,82.12
2023-01-02T06:58:43.185Z,82.86
2023-01-02T07:06:20.435Z,82.54
2023-01-02T07:13:55.819Z,82.38
2023-01-02T07:21:31.750Z,82.25
2023-01-02T07:29:05.680Z,81.76
2023-01-02T07:36:40.897Z,78.46
2023-01-02T07:44:14.798Z,79.38
2023-01-02T07:51:50.092Z,78.51
2023-01-02T07:59:24.011Z,76.57
2023-01-02T08:06:59.596Z,75.74
2023-01-02T08:14:33.810Z,76.07
2023-01-02T08:22:09.850Z,74.81
2023-01-02T08:29:43.940Z,74.26
2023-01-02T08:37:19.306Z,74.86
2023-01-02T08:44:53.959Z,74.51
2023-01-02T08:52:29.243Z,72.61
2023-01-02T09:00:03.716Z,73.08
2023-01-02T09:07:39.147Z,72.17
2023-01-02T09:15:13.132Z,72.03
2023-01-02T09:22:48.717Z,72.46
2023-01-02T09:30:22.561Z,71.61
2023-01-02T09:37:57.837Z,70.68
2023-01-02T09:45:31.930Z,69.22
2023-01-02T09:53:07.316Z,69.08
2023-01-02T10:00:42.917Z,68.44
2023-01-02T10:08:32.255Z,68.14
2023-01-02T10:16:08.761Z,67.09
2023-01-02T10:23:53.901Z,65.73
2023-01-02T10:31:30.904Z,65.91
2023-01-02T10:39:08.118Z,66.15
2023-01-02T10:46:42.791Z,65.89
2023-01-02T10:54:18.207Z,65.50
2023-01-02T11:01:54.936Z,64.81
2023-01-02T11:09:31.648Z,66.61
2023-01-02T11:17:08.119Z,69.48
2023-01-02T11:25:00.655Z,72.62
2023-01-02T11:32:39.705Z,73.24
2023-01-02T11:40:27.479Z,72.23
2023-01-02T11:48:06.084Z,72.71
2023-01-02T11:55:46.227Z,72.13
2023-01-02T12:03:23.358Z,72.19
2023-01-02T12:11:06.575Z,75.48
2023-01-02T12:19:04.035Z,74.06
2023-01-02T12:26:48.547Z,72.89
2023-01-02T12:34:46.730Z,73.21
2023-01-02T12:42:36.878Z,71.25
2023-01-02T12:50:28.974Z,74.31
2023-01-02T12:58:08.555Z,76.67
2023-01-02T13:05:47.481Z,75.35
2023-01-02T13:13:26.761Z,74.21
2023-01-02T13:21:10.629Z,74.52
2023-01-02T13:28:56.133Z,73.81
2023-01-02T13:36:37.427Z,73.13
2023-01-02T13:44:12.904Z,72.70
2023-01-02T13:51:47.121Z,73.33
2023-01-02T13:59:43.116Z,73.27
2023-01-02T14:07:46.275Z,71.99
2023-01-02T14:15:25.192Z,72.09
2023-01-02T14:23:03.291Z,71.70
2023-01-02T14:30:41.587Z,71.69
2023-01-02T14:38:19.935Z,71.88
2023-01-02T14:46:00.229Z,71.70
2023-01-02T14:53:37.977Z,70.99
2023-01-02T15:01:42.469Z,70.94
2023-01-02T15:09:15.737Z,70.67
2023-01-02T15:16:54.658Z,71.44
2023-01-02T15:24:31.524Z,71.90
2023-01-02T15:32:19.874Z,73.14
2023-01-02T15:39:56.357Z,74.45
2023-01-02T15:47:31.959Z,74.62
2023-01-02T15:55:14.742Z,75.58
2023-01-02T16:02:50.140Z,76.76
2023-01-02T16:10:25.728Z,78.26
2023-01-02T16:18:01.806Z,79.93
2023-01-02T16:25:38.308Z,81.86
2023-01-02T16:33:24.689Z,84.10
2023-01-02T16:41:02.898Z,86.00
2023-01-02T16:48:40.570Z,87.42
2023-01-02T16:56:15.899Z,91.36
2023-01-02T17:03:51.262Z,98.24
2023-01-02T17:11:26.171Z,100.00
2023-01-02T17:19:01.439Z,100.00
2023-01-02T17:26:35.495Z,100.00
2023-01-02T17:34:11.455Z,100.00
2023-01-02T17:41:45.355Z,93.42
2023-01-02T17:49:21.229Z,92.78
2023-01-02T17:56:55.276Z,93.37
2023-01-02T18:04:30.586Z,94.92
2023-01-02T18:12:04.776Z,94.24
2023-01-02T18:19:40.211Z,92.31
2023-01-02T18:27:23.425Z,91.47
2023-01-02T18:35:04.021Z,91.91
2023-01-02T18:42:55.115Z,93.08
2023-01-02T18:50:33.853Z,94.71
2023-01-02T18:58:38.923Z,97.30
2023-01-02T19:06:22.643Z,98.35
2023-01-02T19:13:59.067Z,96.73
2023-01-02T19:21:35.814Z,96.31
2023-01-02T19:29:18.675Z,97.97
2023-01-02T19:36:59.796Z,100.00
2023-01-02T19:44:34.168Z,100.00
2023-01-02T19:52:11.064Z,100.00
2023-01-02T19:59:46.156Z,100.00
2023-01-02T20:07:22.176Z,100.00
2023-01-02T20:14:56.102Z,100.00
2023-01-02T20:22:32.309Z,100.00
2023-01-02T20:30:08.870Z,100.00
2023-01-02T20:37:44.435Z,100.00
2023-01-02T20:45:18.701Z,100.00
2023-01-02T20:52:57.043Z,100.00
2023-01-02T21:00:31.253Z,100.00
2023-01-02T21:08:07.121Z,100.00
2023-01-02T21:15:51.506Z,100.00
2023-01-02T21:23:28.696Z,100.00
2023-01-02T21:31:03.542Z,100.00
2023-01-02T21:38:40.048Z,100.00
2023-01-02T21:46:14.156Z,100.00
2023-01-02T21:53:49.593Z,100.00
2023-01-02T22:01:23.684Z,100.00
2023-01-02T22:08:59.199Z,100.00
2023-01-02T22:16:33.183Z,100.00
2023-01-02T22:24:09.747Z,100.00
2023-01-02T22:31:44.154Z,100.00
2023-01-02T22:39:29.025Z,100.00
2023-01-02T22:47:03.336Z,100.00
2023-01-02T22:54:38.786Z,100.00
2023-01-02T23:02:16.952Z,100.00
2023-01-02T23:09:52.330Z,100.00
2023-01-02T23:17:43.591Z,100.00
2023-01-02T23:25:19.106Z,100.00
2023-01-02T23:32:53.003Z,100.00
2023-01-02T23:40:33.955Z,100.00
2023-01-02T23:48:08.278Z,100.00
2023-01-02T23:55:43.777Z,100.00
